createdAt,value
2023-08-04T00:03:54.369Z,993.56
2023-08-04T00:08:54.267Z,993.60
2023-08-04T00:13:54.196Z,993.62
2023-08-04T00:18:54.138Z,993.59
2023-08-04T00:23:54.075Z,993.57
2023-08-04T00:28:54.007Z,993.51
2023-08-04T00:33:54.001Z,993.56
2023-08-04T00:38:53.889Z,993.43
2023-08-04T00:43:53.807Z,993.43
2023-08-04T00:48:53.768Z,993.46
2023-08-04T00:53:53.709Z,993.65
2023-08-04T00:58:53.639Z,993.63
2023-08-04T01:03:53.543Z,993.75
2023-08-04T01:08:53.510Z,993.60
2023-08-04T01:13:53.470Z,993.81
2023-08-04T01:18:53.369Z,993.81
2023-08-04T01:23:53.294Z,993.94
2023-08-04T01:28:53.213Z,994.13
2023-08-04T01:33:53.177Z,994.22
2023-08-04T01:38:53.429Z,994.17
2023-08-04T01:43:53.028Z,994.15
2023-08-04T01:48:52.990Z,993.93
2023-08-04T01:53:53.261Z,994.00
2023-08-04T01:58:52.844Z,993.89
2023-08-04T02:03:52.815Z,993.96
2023-08-04T02:08:52.731Z,994.08
2023-08-04T02:13:52.702Z,994.19
2023-08-04T02:18:52.624Z,994.27
2023-08-04T02:23:52.571Z,994.31
2023-08-04T02:28:52.462Z,994.15
2023-08-04T02:33:52.380Z,994.14
2023-08-04T02:38:52.301Z,994.11
2023-08-04T02:43:52.230Z,994.17
2023-08-04T02:48:52.148Z,994.28
2023-08-04T02:53:52.097Z,994.40
2023-08-04T02:58:52.038Z,994.49
2023-08-04T03:03:51.957Z,994.63
2023-08-04T03:08:52.207Z,994.87
2023-08-04T03:13:51.835Z,994.94
2023-08-04T03:18:51.757Z,994.72
2023-08-04T03:23:51.734Z,994.77
2023-08-04T03:28:51.612Z,994.83
2023-08-04T03:33:51.583Z,994.88
2023-08-04T03:38:51.500Z,994.89
2023-08-04T03:43:51.433Z,994.99
2023-08-04T03:48:51.357Z,994.95
2023-08-04T03:53:51.339Z,995.06
2023-08-04T03:58:52.312Z,995.12
2023-08-04T04:03:51.132Z,995.23
2023-08-04T04:08:51.113Z,995.34
2023-08-04T04:13:51.020Z,995.32
2023-08-04T04:18:50.932Z,995.31
2023-08-04T04:23:50.878Z,995.16
2023-08-04T04:28:50.875Z,995.14
2023-08-04T04:33:50.788Z,995.15
2023-08-04T04:38:50.717Z,995.28
2023-08-04T04:43:50.691Z,995.11
2023-08-04T04:48:50.700Z,995.25
2023-08-04T04:53:50.543Z,995.29
2023-08-04T04:58:50.459Z,995.34
2023-08-04T05:03:50.415Z,995.40
2023-08-04T05:08:50.354Z,995.53
2023-08-04T05:13:50.276Z,995.46
2023-08-04T05:18:50.217Z,995.60
2023-08-04T05:23:50.142Z,995.65
2023-08-04T05:28:50.130Z,995.86
2023-08-04T05:33:49.999Z,995.88
2023-08-04T05:38:49.920Z,995.99
2023-08-04T05:43:49.866Z,995.95
2023-08-04T05:48:49.946Z,995.92
2023-08-04T05:53:49.707Z,995.87
2023-08-04T05:58:51.781Z,995.96
2023-08-04T06:03:49.662Z,996.03
2023-08-04T06:08:49.542Z,995.96
2023-08-04T06:13:49.513Z,996.20
2023-08-04T06:18:49.377Z,996.21
2023-08-04T06:23:49.298Z,996.17
2023-08-04T06:28:49.249Z,996.36
2023-08-04T06:33:49.204Z,996.58
2023-08-04T06:38:49.092Z,996.65
2023-08-04T06:43:49.159Z,996.74
2023-08-04T06:48:48.972Z,996.68
2023-08-04T06:53:48.945Z,996.79
2023-08-04T06:58:48.880Z,996.78
2023-08-04T07:03:48.817Z,996.90
2023-08-04T07:08:48.766Z,996.99
2023-08-04T07:13:48.688Z,997.00
2023-08-04T07:18:48.616Z,997.04
2023-08-04T07:23:48.561Z,997.07
2023-08-04T07:28:48.586Z,997.06
2023-08-04T07:33:48.447Z,997.18
2023-08-04T07:38:48.441Z,997.14
2023-08-04T07:43:48.503Z,997.18
2023-08-04T07:48:48.259Z,997.35
2023-08-04T07:53:48.190Z,997.35
2023-08-04T07:58:48.161Z,997.39
2023-08-04T08:03:48.210Z,997.40
2023-08-04T08:08:47.980Z,997.43
2023-08-04T08:13:47.881Z,997.44
2023-08-04T08:18:47.854Z,997.44
2023-08-04T08:23:47.783Z,997.43
2023-08-04T08:28:47.705Z,997.48
2023-08-04T08:33:47.671Z,997.55
2023-08-04T08:38:47.573Z,997.56
2023-08-04T08:43:47.677Z,997.44
2023-08-04T08:48:47.423Z,997.45
2023-08-04T08:53:47.353Z,997.51
2023-08-04T08:58:47.334Z,997.47
2023-08-04T09:03:47.227Z,997.47
2023-08-04T09:08:47.171Z,997.42
2023-08-04T09:13:47.093Z,997.33
2023-08-04T09:18:47.081Z,997.41
2023-08-04T09:23:46.996Z,997.46
2023-08-04T09:28:46.935Z,997.46
2023-08-04T09:33:46.839Z,997.59
2023-08-04T09:38:46.812Z,997.62
2023-08-04T09:43:46.746Z,997.50
2023-08-04T09:48:46.668Z,997.48
2023-08-04T09:53:46.605Z,997.43
2023-08-04T09:58:46.802Z,997.42
2023-08-04T10:03:46.516Z,997.45
2023-08-04T10:08:46.379Z,997.61
2023-08-04T10:13:46.960Z,997.55
2023-08-04T10:18:47.011Z,997.53
2023-08-04T10:23:46.255Z,997.41
2023-08-04T10:28:46.173Z,997.69
2023-08-04T10:33:46.083Z,997.66
2023-08-04T10:38:46.034Z,997.95
2023-08-04T10:43:47.730Z,997.98
2023-08-04T10:49:07.102Z,997.85
2023-08-04T10:53:45.824Z,997.86
2023-08-04T10:58:52.567Z,997.62
2023-08-04T11:03:56.187Z,997.69
2023-08-04T11:08:45.749Z,997.60
2023-08-04T11:14:11.937Z,997.46
2023-08-04T11:20:15.204Z,997.57
2023-08-04T11:25:01.279Z,997.52
2023-08-04T11:30:00.235Z,997.59
2023-08-04T11:35:06.483Z,997.58
2023-08-04T11:40:10.656Z,997.53
2023-08-04T11:45:00.003Z,997.43
2023-08-04T11:50:23.708Z,997.62
2023-08-04T11:55:21.439Z,997.39
2023-08-04T12:00:00.155Z,997.40
2023-08-04T12:04:59.864Z,997.50
2023-08-04T12:10:02.989Z,997.57
2023-08-04T12:15:20.637Z,997.76
2023-08-04T12:20:01.366Z,998.07
2023-08-04T12:26:48.947Z,998.13
2023-08-04T12:31:44.841Z,997.97
2023-08-04T12:36:48.772Z,997.94
2023-08-04T12:43:19.345Z,998.01
2023-08-04T12:48:47.019Z,998.06
2023-08-04T12:54:27.757Z,998.04
2023-08-04T12:59:48.813Z,998.11
2023-08-04T13:06:01.056Z,998.42
2023-08-04T13:10:56.291Z,998.50
2023-08-04T13:15:47.508Z,998.54
2023-08-04T13:20:40.715Z,998.30
2023-08-04T13:25:41.559Z,998.25
2023-08-04T13:30:47.679Z,998.33
2023-08-04T13:35:58.846Z,998.28
2023-08-04T13:40:40.648Z,998.39
2023-08-04T13:45:40.505Z,998.35
2023-08-04T13:51:09.489Z,998.27
2023-08-04T13:55:49.209Z,998.54
2023-08-04T14:01:54.314Z,998.65
2023-08-04T14:07:29.989Z,998.47
2023-08-04T14:12:21.640Z,998.41
2023-08-04T14:16:56.373Z,998.44
2023-08-04T14:22:01.051Z,998.43
2023-08-04T14:26:53.618Z,998.59
2023-08-04T14:32:00.341Z,998.54
2023-08-04T14:36:56.033Z,998.51
2023-08-04T14:41:53.349Z,998.53
2023-08-04T14:47:00.078Z,998.40
2023-08-04T14:51:54.775Z,998.49
2023-08-04T14:56:53.130Z,998.33
2023-08-04T15:01:55.895Z,998.34
2023-08-04T15:06:53.532Z,998.23
2023-08-04T15:11:56.261Z,998.32
2023-08-04T15:16:53.458Z,998.26
2023-08-04T15:22:14.561Z,998.12
2023-08-04T15:26:56.274Z,998.04
2023-08-04T15:31:53.409Z,998.03
2023-08-04T15:36:53.499Z,998.03
2023-08-04T15:41:52.519Z,997.94
2023-08-04T15:46:56.027Z,997.99
2023-08-04T15:51:52.475Z,998.02
2023-08-04T15:57:13.678Z,997.90
2023-08-04T16:01:52.444Z,998.04
2023-08-04T16:07:15.985Z,997.97
2023-08-04T16:11:54.682Z,997.88
2023-08-04T16:16:54.924Z,997.93
2023-08-04T16:21:52.076Z,997.98
2023-08-04T16:26:52.220Z,998.04
2023-08-04T16:31:51.936Z,998.05
2023-08-04T16:36:52.046Z,997.99
2023-08-04T16:41:51.794Z,997.99
2023-08-04T16:46:52.175Z,998.11
2023-08-04T16:51:51.794Z,998.10
2023-08-04T16:56:53.565Z,998.06
2023-08-04T17:01:51.634Z,998.05
2023-08-04T17:06:52.189Z,998.12
2023-08-04T17:11:51.416Z,998.05
2023-08-04T17:16:52.255Z,998.07
2023-08-04T17:21:51.271Z,998.08
2023-08-04T17:26:51.689Z,998.12
2023-08-04T17:32:01.698Z,998.19
2023-08-04T17:36:51.342Z,998.39
2023-08-04T17:41:51.184Z,998.40
2023-08-04T17:46:51.073Z,998.36
2023-08-04T17:51:50.847Z,998.28
2023-08-04T17:56:51.034Z,998.40
2023-08-04T18:01:50.722Z,998.54
2023-08-04T18:06:50.930Z,998.80
2023-08-04T18:11:50.582Z,998.83
2023-08-04T18:16:50.771Z,998.88
2023-08-04T18:21:50.482Z,999.01
2023-08-04T18:26:50.640Z,999.13
2023-08-04T18:31:50.329Z,999.23
2023-08-04T18:36:50.467Z,999.21
2023-08-04T18:41:50.214Z,999.26
2023-08-04T18:46:50.363Z,999.30
2023-08-04T18:51:50.091Z,999.29
2023-08-04T18:56:50.281Z,999.29
2023-08-04T19:01:49.946Z,999.31
2023-08-04T19:06:50.141Z,999.29
2023-08-04T19:11:49.871Z,999.36
2023-08-04T19:16:49.995Z,999.26
2023-08-04T19:21:49.682Z,999.32
2023-08-04T19:26:49.738Z,999.24
2023-08-04T19:31:49.563Z,999.23
2023-08-04T19:36:49.718Z,999.19
2023-08-04T19:41:49.400Z,999.27
2023-08-04T19:46:49.579Z,999.27
2023-08-04T19:51:49.262Z,999.37
2023-08-04T19:56:49.415Z,999.33
2023-08-04T20:01:49.203Z,999.40
2023-08-04T20:06:49.457Z,999.48
2023-08-04T20:11:49.001Z,999.58
2023-08-04T20:16:49.231Z,999.69
2023-08-04T20:21:48.880Z,999.71
2023-08-04T20:28:20.699Z,999.72
2023-08-04T20:33:05.977Z,999.82
2023-08-04T20:38:05.789Z,999.90
2023-08-04T20:43:05.736Z,999.89
2023-08-04T20:48:05.678Z,999.89
2023-08-04T20:53:05.597Z,999.77
2023-08-04T20:58:05.581Z,999.85
2023-08-04T21:03:05.560Z,999.89
2023-08-04T21:08:05.405Z,999.92
2023-08-04T21:13:05.322Z,999.90
2023-08-04T21:18:05.313Z,999.76
2023-08-04T21:23:05.196Z,999.72
2023-08-04T21:28:05.141Z,999.71
2023-08-04T21:33:05.086Z,999.68
2023-08-04T21:38:05.004Z,999.66
2023-08-04T21:43:04.956Z,999.75
2023-08-04T21:48:04.914Z,999.74
2023-08-04T21:53:04.836Z,999.91
2023-08-04T21:58:04.759Z,999.84
2023-08-04T22:03:05.089Z,999.98
2023-08-04T22:08:04.619Z,999.95
2023-08-04T22:13:04.591Z,999.98
2023-08-04T22:18:04.599Z,999.88
2023-08-04T22:23:04.485Z,999.97
2023-08-04T22:28:04.383Z,999.88
2023-08-04T22:33:04.314Z,1000.01
2023-08-04T22:38:04.212Z,999.99
2023-08-04T22:43:04.741Z,1000.06
2023-08-04T22:48:04.145Z,999.84
2023-08-04T22:53:04.064Z,999.89
2023-08-04T22:58:03.982Z,999.90
2023-08-04T23:03:04.173Z,999.98
2023-08-04T23:08:03.868Z,999.94
2023-08-04T23:13:03.778Z,999.90
2023-08-04T23:18:03.718Z,999.99
2023-08-04T23:23:03.647Z,1000.00
2023-08-04T23:28:03.582Z,1000.08
2023-08-04T23:33:03.534Z,1000.08
2023-08-04T23:38:03.456Z,1000.02
2023-08-04T23:43:03.365Z,1000.03
2023-08-04T23:48:03.331Z,999.96
2023-08-04T23:53:03.277Z,999.99
2023-08-04T23:58:03.234Z,1000.15
